Voorheesville, NY (12186)

9:55 AM EST on January 28, 2015 (GMT -0500)
Voorheesville Elementary School | Change Station
CLOSE
Current Station
Personal Weather Station
Location: Voorheesville, NY
Elevation: 341 ft
Nearby Weather Stations

Elev 341 ft 42.65 °N, 73.94 °W | Updated 2 seconds ago

Mostly Cloudy
Mostly Cloudy
17.6 °F
Feels Like 8 °F
N
7.0
Wind Variable Wind from South
Gusts 16.0 mph

Today
High -- | Low -- °F
--% Chance of Precip.
Yesterday
High -- | Low -- °F
Precip. -- in
7:14 AM 5:03 PM
Waxing Gibbous, 65% visible
Pressure 30.14 in
Visibility 10.0 miles
Clouds Few 4500 ft
Few 9000 ft
Scattered Clouds 11000 ft
Windchill 8 °F
Dew Point 3 °F
Humidity 52%
Rainfall 0.00 in
Snow Depth Not available.
UV 1 out of 12
Pollen .10 out of 12
Air Quality Not available.
Flu Activity Not available.
METAR KALB 281451Z 35010KT 10SM FEW045 FEW090 SCT110 M11/M19 A3012 RMK AO2 SLP206 SCT V FEW 60000 T11061194 51024

More Conditions Fewer Conditions

Pressure 30.14 in
Visibility 10.0 miles
Clouds Few 4500 ft
Few 9000 ft
Scattered Clouds 11000 ft
Windchill 8 °F
Dew Point 3 °F
Humidity 52%
Rainfall 0.00 in
Snow Depth Not available.
UV 1 out of 12
Pollen .10 out of 12
Air Quality Not available.
Flu Activity Not available.
METAR KALB 281451Z 35010KT 10SM FEW045 FEW090 SCT110 M11/M19 A3012 RMK AO2 SLP206 SCT V FEW 60000 T11061194 51024

More Conditions Fewer Conditions

10-Day Weather Forecast

Almanac

Astronomy

Jan. 28, 2015 Rise Set
Actual Time
Civil Twilight
Nautical Twilight
Astronomical Twilight
Moon
Length of Visible Light
Length of Day
Tomorrow will be .
, % of the Moon is Illuminated

Today's Extremes

State Highs State Lows

Community

WunderPhotos

Upload Photos

1,791,160 photos uploaded!

WunderBlogs® & News

Nearby

Air Quality

  Air Quality AQ Index Pollutant
Not available.

Snow Depth

Station Depth Elevation

Earthquake Activity

City Distance Mag. Time & Date
Minimum magnitude displayed is 2.5.

Coastal Water Temperatures

Place Temperature

Nearby Weather Stations